Time;durP1;ratioP1;P1;durP2;ratioP2;P2;SDS_P1;SDS_P2;PMS_P1;PMS_P2;Temp;Humidity;BMP_temperature;BMP_pressure;BME280_temperature;BME280_humidity;BME280_pressure;Samples;Min_cycle;Max_cycle;Signal;HPM_P1;HPM_P2
2021/05/10 00:01:02;;;;;;;1.20;1.07;;;14.70;55.80;;;;;;6232751;28;20397;-70
2021/05/10 00:04:04;;;;;;;3.20;1.30;;;14.60;55.90;;;;;;6232246;28;20723;-70
2021/05/10 00:07:07;;;;;;;2.67;1.40;;;14.60;55.40;;;;;;6231693;28;20231;-70
2021/05/10 00:10:10;;;;;;;1.93;1.20;;;14.60;56.20;;;;;;6231682;28;20697;-70
2021/05/10 00:13:14;;;;;;;3.47;1.20;;;14.60;56.60;;;;;;6232259;28;20666;-71
2021/05/10 00:16:18;;;;;;;2.27;1.10;;;14.50;56.70;;;;;;6230072;28;20239;-70
2021/05/10 00:19:20;;;;;;;1.27;0.97;;;14.40;56.70;;;;;;6232034;28;20227;-70
2021/05/10 00:22:22;;;;;;;2.70;1.20;;;14.40;56.60;;;;;;6230180;28;20232;-70
2021/05/10 00:25:26;;;;;;;1.23;1.10;;;14.50;56.50;;;;;;6232276;28;20595;-70
2021/05/10 00:28:27;;;;;;;2.17;1.00;;;14.40;57.50;;;;;;6231995;28;20792;-70
2021/05/10 00:31:29;;;;;;;2.27;1.20;;;14.40;56.70;;;;;;6205588;28;20233;-71
2021/05/10 00:34:31;;;;;;;2.40;1.30;;;14.40;56.60;;;;;;6213060;28;20226;-70
2021/05/10 00:37:33;;;;;;;2.20;1.13;;;14.50;56.60;;;;;;6206569;28;20640;-70
2021/05/10 00:40:35;;;;;;;2.67;1.40;;;14.50;57.30;;;;;;6206750;28;20586;-70
2021/05/10 00:43:36;;;;;;;2.03;0.93;;;14.50;57.80;;;;;;6207198;28;20255;-70
2021/05/10 00:46:39;;;;;;;2.13;1.30;;;14.30;58.40;;;;;;6206307;28;20715;-70
2021/05/10 00:49:41;;;;;;;1.20;1.10;;;14.30;58.80;;;;;;6180115;28;20702;-70
2021/05/10 00:52:43;;;;;;;3.10;1.07;;;14.20;57.60;;;;;;6164923;28;20256;-70
2021/05/10 00:55:45;;;;;;;1.50;1.10;;;14.20;58.90;;;;;;6164945;28;20605;-70
2021/05/10 00:58:48;;;;;;;2.37;1.10;;;14.20;59.70;;;;;;6181570;28;20236;-70
2021/05/10 01:01:52;;;;;;;1.43;0.97;;;14.10;60.10;;;;;;6182337;28;20230;-70
2021/05/10 01:04:54;;;;;;;2.10;1.10;;;13.90;61.10;;;;;;6181863;28;20833;-70
2021/05/10 01:07:56;;;;;;;1.70;1.20;;;13.80;63.60;;;;;;6163994;28;20225;-70
2021/05/10 01:11:00;;;;;;;1.37;1.20;;;13.70;63.40;;;;;;6164055;28;20251;-70
2021/05/10 01:14:02;;;;;;;2.17;1.00;;;13.60;64.10;;;;;;6181951;28;20313;-70
2021/05/10 01:17:04;;;;;;;1.77;1.10;;;13.60;63.80;;;;;;6181261;28;20735;-70
2021/05/10 01:20:09;;;;;;;1.27;1.07;;;13.60;63.70;;;;;;6177099;28;20244;-70
2021/05/10 01:23:11;;;;;;;1.90;1.27;;;13.50;64.90;;;;;;6187968;28;20243;-70
2021/05/10 01:26:14;;;;;;;1.13;1.03;;;13.50;62.80;;;;;;6187767;28;20745;-70
2021/05/10 01:29:18;;;;;;;2.23;1.20;;;13.50;61.80;;;;;;6194920;28;20286;-70
2021/05/10 01:32:20;;;;;;;1.30;0.93;;;13.60;61.60;;;;;;6164571;28;20260;-70
2021/05/10 01:35:26;;;;;;;8.00;1.40;;;13.60;62.00;;;;;;6185917;28;20731;-70
2021/05/10 01:38:28;;;;;;;2.90;1.37;;;13.60;63.10;;;;;;6203861;28;20263;-70
2021/05/10 01:41:29;;;;;;;3.40;1.37;;;13.70;62.70;;;;;;6205845;28;20234;-70
2021/05/10 01:44:31;;;;;;;1.20;1.10;;;13.80;62.80;;;;;;6204888;28;20549;-70
2021/05/10 01:47:33;;;;;;;1.20;1.10;;;13.90;62.40;;;;;;6208918;28;20309;-70
2021/05/10 01:50:38;;;;;;;2.73;1.13;;;14.00;62.40;;;;;;6229417;28;20298;-70
2021/05/10 01:53:40;;;;;;;1.67;1.30;;;13.90;63.10;;;;;;6221216;28;20257;-70
2021/05/10 01:56:41;;;;;;;1.37;1.07;;;13.90;64.80;;;;;;6237843;28;20237;-70
2021/05/10 01:59:43;;;;;;;3.13;1.50;;;13.70;65.40;;;;;;6237688;28;20786;-71
2021/05/10 02:02:45;;;;;;;1.67;1.23;;;13.60;65.90;;;;;;6237875;28;20317;-70
2021/05/10 02:05:49;;;;;;;2.73;1.73;;;13.60;67.00;;;;;;6219903;28;20281;-70
2021/05/10 02:08:51;;;;;;;2.87;1.63;;;13.50;70.00;;;;;;6237919;28;20340;-71
2021/05/10 02:11:53;;;;;;;1.67;1.53;;;13.60;66.80;;;;;;6239314;28;20242;-71
2021/05/10 02:14:54;;;;;;;4.23;1.23;;;13.70;67.30;;;;;;6220228;28;20241;-70
2021/05/10 02:17:57;;;;;;;1.70;1.43;;;13.70;66.50;;;;;;6237299;28;20325;-71
2021/05/10 02:20:59;;;;;;;2.03;1.43;;;13.70;66.80;;;;;;6219507;28;20264;-71
2021/05/10 02:24:01;;;;;;;3.33;1.33;;;13.70;66.30;;;;;;6238662;28;20716;-71
2021/05/10 02:27:04;;;;;;;3.53;1.40;;;13.60;67.80;;;;;;6219562;28;20228;-71
2021/05/10 02:30:06;;;;;;;2.60;1.10;;;13.50;69.20;;;;;;6220155;28;20736;-70
2021/05/10 02:33:15;;;;;;;1.90;1.67;;;13.40;69.30;;;;;;6195578;28;20613;-70
2021/05/10 02:36:17;;;;;;;2.73;1.40;;;13.30;71.40;;;;;;6195422;28;20240;-70
2021/05/10 02:39:19;;;;;;;5.53;1.67;;;13.10;73.00;;;;;;6213528;28;20688;-70
2021/05/10 02:42:21;;;;;;;1.70;1.43;;;13.00;74.30;;;;;;6213693;28;20355;-71
2021/05/10 02:45:23;;;;;;;2.30;1.40;;;12.80;77.20;;;;;;6212666;28;20224;-70
2021/05/10 02:48:25;;;;;;;1.73;1.57;;;12.70;79.20;;;;;;6194480;28;20237;-70
2021/05/10 02:51:27;;;;;;;1.83;1.37;;;12.50;80.70;;;;;;6238229;28;20227;-70
2021/05/10 02:54:29;;;;;;;2.17;1.40;;;12.40;82.50;;;;;;6222432;28;20669;-70
2021/05/10 02:57:30;;;;;;;1.97;1.20;;;12.30;83.90;;;;;;6224748;28;20592;-70
2021/05/10 03:00:32;;;;;;;1.60;1.50;;;12.30;86.10;;;;;;6215107;28;20230;-70
2021/05/10 03:03:34;;;;;;;2.57;1.17;;;12.20;87.20;;;;;;6218765;28;20286;-70
2021/05/10 03:06:36;;;;;;;2.90;1.77;;;12.10;89.60;;;;;;6201223;28;20604;-71
2021/05/10 03:09:37;;;;;;;1.40;1.30;;;12.10;90.70;;;;;;6200293;28;20310;-70
2021/05/10 03:12:40;;;;;;;3.97;1.20;;;12.10;91.40;;;;;;6237104;28;20235;-70
2021/05/10 03:15:42;;;;;;;1.90;1.30;;;12.10;92.20;;;;;;6238279;28;20235;-70
2021/05/10 03:18:44;;;;;;;4.40;1.80;;;12.10;93.90;;;;;;6234057;28;20697;-71
2021/05/10 03:21:46;;;;;;;2.03;1.20;;;12.00;95.90;;;;;;6195758;28;20707;-70
2021/05/10 03:24:48;;;;;;;1.40;1.30;;;11.90;97.40;;;;;;6213456;28;20627;-70
2021/05/10 03:27:51;;;;;;;3.20;1.60;;;11.80;98.60;;;;;;6214233;28;20315;-70
2021/05/10 03:30:52;;;;;;;1.40;1.30;;;11.80;99.90;;;;;;6237949;28;20722;-70
2021/05/10 03:33:54;;;;;;;1.50;1.40;;;11.70;99.90;;;;;;6236884;28;20232;-70
2021/05/10 03:36:56;;;;;;;2.00;1.80;;;11.60;99.90;;;;;;6218942;28;20795;-70
2021/05/10 03:39:58;;;;;;;2.00;1.33;;;11.60;99.90;;;;;;6217378;28;20314;-70
2021/05/10 03:43:00;;;;;;;3.53;1.30;;;11.60;99.90;;;;;;6233261;28;20227;-70
2021/05/10 03:46:07;;;;;;;2.30;1.30;;;11.50;99.90;;;;;;6233320;28;20599;-70
2021/05/10 03:49:09;;;;;;;2.70;1.80;;;11.50;99.90;;;;;;6232454;28;20251;-70
2021/05/10 03:52:11;;;;;;;2.80;2.00;;;11.50;99.90;;;;;;6214892;28;20318;-70
2021/05/10 03:55:16;;;;;;;4.07;1.50;;;11.40;99.90;;;;;;6231403;28;20716;-70
2021/05/10 03:58:18;;;;;;;1.60;1.40;;;11.50;99.90;;;;;;6232819;28;20302;-70
2021/05/10 04:01:20;;;;;;;2.73;1.30;;;11.40;99.90;;;;;;6213986;28;20736;-70
2021/05/10 04:04:27;;;;;;;1.80;1.50;;;11.50;99.90;;;;;;6213432;28;20438;-70
2021/05/10 04:13:55;;;;;;;2.03;1.30;;;11.50;99.90;;;;;;6230876;28;20297;-70
2021/05/10 04:16:56;;;;;;;2.50;1.40;;;11.60;99.90;;;;;;6231287;28;20228;-70
2021/05/10 04:19:59;;;;;;;2.03;1.73;;;11.60;99.90;;;;;;6232012;28;20338;-70
2021/05/10 04:23:00;;;;;;;2.03;1.40;;;11.60;99.90;;;;;;6232477;28;20243;-70
2021/05/10 04:26:02;;;;;;;3.43;1.50;;;11.70;99.90;;;;;;6230373;28;20369;-70
2021/05/10 04:29:04;;;;;;;5.47;1.47;;;11.70;99.90;;;;;;6221517;28;20229;-70
2021/05/10 04:32:06;;;;;;;2.80;1.37;;;11.80;99.90;;;;;;6188958;28;20284;-70
2021/05/10 04:35:09;;;;;;;2.23;1.40;;;11.80;99.90;;;;;;6207152;28;20243;-70
2021/05/10 04:38:12;;;;;;;3.13;1.70;;;11.80;99.90;;;;;;6206874;28;20251;-70
2021/05/10 04:41:14;;;;;;;1.63;1.50;;;11.80;99.90;;;;;;6207038;28;20706;-70
2021/05/10 04:44:15;;;;;;;1.70;1.50;;;11.80;99.90;;;;;;6189330;28;20226;-70
2021/05/10 04:47:18;;;;;;;2.73;1.43;;;11.90;99.90;;;;;;6206646;28;20724;-70
2021/05/10 04:50:20;;;;;;;1.73;1.60;;;11.90;99.90;;;;;;6211570;28;20232;-70
2021/05/10 04:53:22;;;;;;;2.50;1.40;;;11.90;99.90;;;;;;6231780;28;20758;-70
2021/05/10 04:56:24;;;;;;;1.70;1.60;;;11.90;99.90;;;;;;6230704;28;20306;-70
2021/05/10 04:59:25;;;;;;;2.33;1.50;;;12.00;99.90;;;;;;6230885;28;20322;-70
2021/05/10 05:02:27;;;;;;;1.27;1.17;;;12.00;99.90;;;;;;6229091;28;20219;-70
2021/05/10 05:05:30;;;;;;;3.13;1.33;;;12.00;99.90;;;;;;6229688;28;20224;-70
2021/05/10 05:08:32;;;;;;;1.30;1.20;;;12.00;99.90;;;;;;6228612;28;20393;-70
2021/05/10 05:11:34;;;;;;;1.67;1.57;;;12.00;99.90;;;;;;6230648;28;20699;-70
2021/05/10 05:14:36;;;;;;;1.43;1.33;;;12.00;99.90;;;;;;6233653;28;20239;-70
2021/05/10 05:17:38;;;;;;;1.97;1.40;;;12.00;99.90;;;;;;6232060;28;20286;-71
2021/05/10 05:20:40;;;;;;;3.30;1.57;;;12.00;99.90;;;;;;6221012;28;20254;-70
2021/05/10 05:23:42;;;;;;;2.00;1.77;;;12.00;99.90;;;;;;6229953;28;20264;-70
2021/05/10 05:26:44;;;;;;;3.20;1.77;;;12.10;99.90;;;;;;6230508;28;20230;-70
2021/05/10 05:29:46;;;;;;;2.83;1.90;;;12.10;99.90;;;;;;6221265;28;20311;-70
2021/05/10 05:32:48;;;;;;;2.93;1.70;;;12.10;99.90;;;;;;6214621;28;20220;-70
2021/05/10 05:35:50;;;;;;;2.80;1.60;;;12.20;99.90;;;;;;6213778;28;20331;-70
2021/05/10 05:38:52;;;;;;;3.20;1.63;;;12.20;99.90;;;;;;6235269;28;20702;-70
2021/05/10 05:41:54;;;;;;;1.83;1.67;;;12.30;99.90;;;;;;6232891;28;20324;-70
2021/05/10 05:44:55;;;;;;;2.60;1.57;;;12.40;99.90;;;;;;6234140;28;20262;-70
2021/05/10 05:47:57;;;;;;;3.20;1.53;;;12.40;99.90;;;;;;6216687;28;20273;-70
2021/05/10 05:50:59;;;;;;;1.93;1.70;;;12.50;99.90;;;;;;6202780;28;20704;-70
2021/05/10 05:54:02;;;;;;;1.97;1.30;;;12.50;99.90;;;;;;6228544;28;20305;-70
2021/05/10 05:57:04;;;;;;;2.23;1.33;;;12.50;99.90;;;;;;6211659;28;20204;-70
2021/05/10 06:00:07;;;;;;;2.63;1.60;;;12.50;99.90;;;;;;6229222;28;20246;-70
2021/05/10 06:03:11;;;;;;;2.23;1.50;;;12.50;99.90;;;;;;6229587;28;20209;-71
2021/05/10 06:06:12;;;;;;;2.07;1.57;;;12.50;99.90;;;;;;6212051;28;20205;-70
2021/05/10 06:09:14;;;;;;;2.50;1.80;;;12.40;99.90;;;;;;6211643;28;20198;-70
2021/05/10 06:12:16;;;;;;;1.50;1.40;;;12.30;99.90;;;;;;6212353;28;20235;-70
2021/05/10 06:15:20;;;;;;;3.80;1.77;;;12.30;99.90;;;;;;6229029;28;20745;-70
2021/05/10 06:18:22;;;;;;;1.57;1.40;;;12.20;99.90;;;;;;6211481;28;20224;-70
2021/05/10 06:21:25;;;;;;;1.57;1.40;;;12.30;99.90;;;;;;6220536;28;20362;-70
2021/05/10 06:24:26;;;;;;;3.67;1.60;;;12.30;99.90;;;;;;6230731;28;20752;-70
2021/05/10 06:27:28;;;;;;;2.27;1.63;;;12.40;99.90;;;;;;6227476;28;20224;-70
2021/05/10 06:30:31;;;;;;;1.63;1.50;;;12.50;99.90;;;;;;6228854;28;20230;-70
2021/05/10 06:33:34;;;;;;;6.43;2.00;;;12.60;99.90;;;;;;6227892;28;20230;-70
2021/05/10 06:36:35;;;;;;;1.50;1.40;;;12.70;99.90;;;;;;6234944;28;20274;-70
2021/05/10 06:39:37;;;;;;;2.30;1.20;;;12.90;99.90;;;;;;6215433;28;20600;-70
2021/05/10 06:42:39;;;;;;;1.97;1.40;;;13.10;99.90;;;;;;6234112;28;20692;-71
2021/05/10 06:45:41;;;;;;;4.00;1.70;;;13.20;99.90;;;;;;6216036;28;20296;-70
2021/05/10 06:48:43;;;;;;;2.40;1.57;;;13.30;99.90;;;;;;6215025;28;20252;-70
2021/05/10 06:51:45;;;;;;;4.00;1.13;;;13.60;99.90;;;;;;6234375;28;20294;-70
2021/05/10 06:54:47;;;;;;;2.03;1.50;;;14.00;99.90;;;;;;6233560;28;20711;-70
2021/05/10 06:57:49;;;;;;;3.73;1.50;;;14.30;99.90;;;;;;6232133;28;20774;-71
2021/05/10 07:00:52;;;;;;;1.47;1.13;;;14.60;99.90;;;;;;6223132;28;20222;-71
2021/05/10 07:03:54;;;;;;;2.27;1.33;;;14.90;99.90;;;;;;6215164;28;20251;-71
2021/05/10 07:06:56;;;;;;;3.40;1.60;;;15.10;99.90;;;;;;6233517;28;20293;-70
2021/05/10 07:09:58;;;;;;;2.80;1.20;;;15.30;99.90;;;;;;6233355;28;20238;-71
2021/05/10 07:13:00;;;;;;;2.67;1.33;;;15.60;99.90;;;;;;6215936;28;20223;-71
2021/05/10 07:16:01;;;;;;;5.10;1.50;;;15.90;99.90;;;;;;6232305;28;20297;-71
2021/05/10 07:19:03;;;;;;;1.60;1.30;;;16.30;99.00;;;;;;6233469;28;20314;-71
2021/05/10 07:22:07;;;;;;;2.37;1.30;;;16.60;97.20;;;;;;6226976;28;20688;-71
2021/05/10 07:25:09;;;;;;;1.40;1.17;;;16.90;96.70;;;;;;6232878;28;20694;-71
2021/05/10 07:28:13;;;;;;;2.60;1.60;;;17.10;94.30;;;;;;6231166;28;20361;-71
2021/05/10 07:31:14;;;;;;;2.43;1.20;;;17.30;93.70;;;;;;6216228;28;22357;-71
2021/05/10 07:34:17;;;;;;;2.47;1.47;;;17.70;94.10;;;;;;6232581;28;20244;-72
2021/05/10 07:37:19;;;;;;;7.30;2.10;;;18.00;91.30;;;;;;6232604;28;20239;-71
2021/05/10 07:40:24;;;;;;;3.27;1.40;;;18.40;86.50;;;;;;6232112;28;20593;-71
2021/05/10 07:43:25;;;;;;;1.63;1.33;;;18.70;84.30;;;;;;6214779;28;20324;-72
2021/05/10 07:46:28;;;;;;;2.30;1.40;;;19.10;82.90;;;;;;6230830;28;20232;-72
2021/05/10 07:49:29;;;;;;;1.73;1.40;;;19.30;81.70;;;;;;6226002;28;20232;-71
2021/05/10 07:52:32;;;;;;;4.10;1.33;;;19.50;76.50;;;;;;6231443;28;20337;-71
2021/05/10 07:55:37;;;;;;;3.10;1.80;;;19.80;78.20;;;;;;6214760;28;20228;-73
2021/05/10 07:58:42;;;;;;;2.23;1.40;;;19.90;72.50;;;;;;6232430;28;20239;-71
2021/05/10 08:01:46;;;;;;;1.70;1.30;;;20.10;71.90;;;;;;6231438;28;20286;-71
2021/05/10 08:04:52;;;;;;;3.00;1.70;;;20.40;70.30;;;;;;6232467;28;20220;-72
2021/05/10 08:07:54;;;;;;;1.93;1.30;;;20.70;70.10;;;;;;6229803;28;20263;-71
2021/05/10 08:10:56;;;;;;;5.83;1.60;;;21.10;69.50;;;;;;6232603;28;20306;-73
2021/05/10 08:13:58;;;;;;;1.93;1.60;;;21.60;65.50;;;;;;6229833;28;20642;-71
2021/05/10 08:17:01;;;;;;;3.53;1.50;;;21.80;65.60;;;;;;6232272;28;20243;-72
2021/05/10 08:20:06;;;;;;;2.43;1.67;;;22.00;61.10;;;;;;6245878;28;20239;-72
2021/05/10 08:23:08;;;;;;;2.33;1.30;;;22.30;65.20;;;;;;6232452;28;20262;-72
2021/05/10 08:26:10;;;;;;;3.47;1.33;;;22.50;58.70;;;;;;6229464;28;20227;-73
2021/05/10 08:29:11;;;;;;;2.57;1.30;;;22.80;58.10;;;;;;6232146;28;20716;-72
2021/05/10 08:32:13;;;;;;;2.27;1.20;;;23.10;57.40;;;;;;6230636;28;20592;-71
2021/05/10 08:35:15;;;;;;;2.53;1.60;;;23.40;57.80;;;;;;6230573;28;20239;-72
2021/05/10 08:38:17;;;;;;;1.47;1.30;;;23.50;55.50;;;;;;6231502;28;20234;-72
2021/05/10 08:41:19;;;;;;;1.80;1.43;;;23.60;56.30;;;;;;6231351;28;20232;-72
2021/05/10 08:44:22;;;;;;;2.33;1.57;;;23.70;55.10;;;;;;6213845;28;20619;-72
2021/05/10 08:47:32;;;;;;;2.00;1.20;;;23.40;54.70;;;;;;6188434;28;20668;-72
2021/05/10 08:50:35;;;;;;;3.83;1.33;;;23.20;55.10;;;;;;6214198;28;20228;-72
2021/05/10 08:53:39;;;;;;;2.63;1.77;;;23.40;55.90;;;;;;6213062;28;20299;-72
2021/05/10 08:56:41;;;;;;;2.73;1.50;;;23.50;54.90;;;;;;6229402;28;20230;-72
2021/05/10 08:59:44;;;;;;;4.53;1.40;;;23.70;55.30;;;;;;6230802;28;20235;-72
2021/05/10 09:02:46;;;;;;;5.27;1.70;;;23.80;54.30;;;;;;6214105;28;20227;-72
2021/05/10 09:05:51;;;;;;;2.77;1.70;;;23.90;53.70;;;;;;6215850;28;20223;-72
2021/05/10 09:08:52;;;;;;;2.30;1.30;;;24.20;53.90;;;;;;6230609;28;20259;-72
2021/05/10 09:11:55;;;;;;;3.73;1.50;;;24.50;54.00;;;;;;6230305;28;20258;-72
2021/05/10 09:14:57;;;;;;;5.63;1.90;;;24.90;53.20;;;;;;6212967;28;20231;-72
2021/05/10 09:18:07;;;;;;;2.03;1.60;;;25.00;52.70;;;;;;6229475;28;20239;-72
2021/05/10 09:21:14;;;;;;;3.07;1.37;;;24.90;52.40;;;;;;6221389;28;20228;-72
2021/05/10 09:24:50;;;;;;;3.40;1.33;;;25.20;51.00;;;;;;6214965;28;20224;-72
2021/05/10 09:28:10;;;;;;;3.90;1.70;;;25.30;52.00;;;;;;6230059;28;20236;-72
2021/05/10 09:31:12;;;;;;;3.73;1.80;;;25.60;50.70;;;;;;6205637;28;20375;-72
2021/05/10 09:34:26;;;;;;;3.47;1.73;;;25.90;50.40;;;;;;6206188;28;20237;-72
2021/05/10 09:37:27;;;;;;;2.45;1.63;;;26.10;51.10;;;;;;6220846;28;20573;-72
2021/05/10 09:40:49;;;;;;;2.55;1.23;;;26.50;51.60;;;;;;6229198;28;20259;-71
2021/05/10 09:43:59;;;;;;;8.75;1.80;;;27.10;51.90;;;;;;6211557;28;20321;-70
2021/05/10 09:47:02;;;;;;;4.00;2.03;;;27.30;49.30;;;;;;6229326;28;20306;-72
2021/05/10 09:50:04;;;;;;;2.42;1.73;;;27.00;48.10;;;;;;6210915;28;20236;-72
2021/05/10 09:53:07;;;;;;;4.25;2.00;;;26.80;50.20;;;;;;6229354;28;20258;-72
2021/05/10 09:56:12;;;;;;;1.95;1.45;;;27.10;50.50;;;;;;6229903;28;20231;-72
2021/05/10 09:59:17;;;;;;;4.88;1.70;;;27.40;49.80;;;;;;6231053;28;20230;-72
2021/05/10 10:02:40;;;;;;;1.80;1.50;;;27.00;48.40;;;;;;6228921;28;20232;-71
2021/05/10 10:05:42;;;;;;;4.32;1.55;;;26.80;49.50;;;;;;6212385;28;20693;-72
2021/05/10 10:08:46;;;;;;;3.00;1.45;;;26.80;48.40;;;;;;6232151;28;20227;-71
2021/05/10 10:11:47;;;;;;;3.35;1.70;;;27.20;48.60;;;;;;6215400;28;20231;-71
2021/05/10 10:14:49;;;;;;;3.70;1.75;;;27.40;47.60;;;;;;6234618;28;20231;-72
2021/05/10 10:17:51;;;;;;;2.60;1.50;;;27.80;47.80;;;;;;6233504;28;20230;-72
2021/05/10 10:20:56;;;;;;;3.47;1.70;;;28.10;47.30;;;;;;6234140;28;20329;-72
2021/05/10 10:24:04;;;;;;;3.78;1.33;;;28.50;47.00;;;;;;6234624;28;20597;-72
2021/05/10 10:27:29;;;;;;;2.58;1.42;;;28.80;46.50;;;;;;6234791;28;20323;-72
2021/05/10 10:30:32;;;;;;;4.18;1.40;;;28.80;45.80;;;;;;6234464;28;20238;-73
2021/05/10 10:33:40;;;;;;;3.63;1.38;;;28.10;45.80;;;;;;6226410;28;20228;-72
2021/05/10 10:36:52;;;;;;;4.50;1.83;;;28.00;46.90;;;;;;6195711;28;20592;-74
2021/05/10 10:40:02;;;;;;;2.80;1.42;;;28.20;46.40;;;;;;6209679;28;20240;-73
2021/05/10 10:43:24;;;;;;;4.32;1.50;;;28.40;46.10;;;;;;6210254;28;20311;-71
2021/05/10 10:46:31;;;;;;;2.25;1.45;;;28.50;46.90;;;;;;6191736;28;20315;-72
2021/05/10 10:49:44;;;;;;;6.03;1.83;;;28.50;46.30;;;;;;6202531;28;20769;-72
2021/05/10 10:52:51;;;;;;;1.35;1.13;;;28.70;44.30;;;;;;6185009;28;20720;-72
2021/05/10 10:55:53;;;;;;;1.92;1.40;;;28.70;45.50;;;;;;6185801;28;20248;-71
2021/05/10 10:59:36;;;;;;;2.78;1.58;;;28.90;45.20;;;;;;6185901;28;20233;-72
2021/05/10 11:02:54;;;;;;;2.45;1.58;;;29.20;46.20;;;;;;6208739;28;20225;-71
2021/05/10 11:05:56;;;;;;;3.92;1.50;;;29.60;45.50;;;;;;6214346;28;20700;-72
2021/05/10 11:08:58;;;;;;;3.25;1.52;;;30.00;43.20;;;;;;6212557;28;20375;-72
2021/05/10 11:12:00;;;;;;;3.58;1.70;;;30.10;44.20;;;;;;6176402;28;20311;-72
2021/05/10 11:15:02;;;;;;;2.78;1.40;;;30.40;42.70;;;;;;6208244;28;20323;-72
2021/05/10 11:18:05;;;;;;;3.90;1.40;;;30.60;43.00;;;;;;6208001;28;20328;-72
2021/05/10 11:21:22;;;;;;;2.50;1.35;;;31.00;42.10;;;;;;6190079;28;20237;-73
2021/05/10 11:24:27;;;;;;;2.55;1.42;;;31.40;40.70;;;;;;6184120;28;20225;-72
2021/05/10 11:27:31;;;;;;;2.88;1.30;;;31.10;39.10;;;;;;6184135;28;20307;-72
2021/05/10 11:30:55;;;;;;;1.27;1.13;;;30.80;40.00;;;;;;6204991;28;20288;-72
2021/05/10 11:33:57;;;;;;;3.25;1.20;;;31.20;40.30;;;;;;6190481;28;20240;-71
2021/05/10 11:37:00;;;;;;;2.40;1.40;;;31.60;40.20;;;;;;6205984;28;20314;-72
2021/05/10 11:40:02;;;;;;;1.42;0.95;;;32.20;39.60;;;;;;6207494;28;20636;-72
2021/05/10 11:43:17;;;;;;;2.05;1.38;;;32.50;38.90;;;;;;6190778;28;20594;-73
2021/05/10 11:46:56;;;;;;;3.40;1.55;;;32.70;37.30;;;;;;6209104;28;20319;-72
2021/05/10 11:50:02;;;;;;;3.15;1.23;;;32.60;37.00;;;;;;6118368;29;20630;-72
2021/05/10 11:53:05;;;;;;;2.03;1.48;;;32.20;36.30;;;;;;6132099;29;20235;-72
2021/05/10 11:56:07;;;;;;;2.85;1.25;;;31.80;37.00;;;;;;6132681;29;20262;-73
2021/05/10 12:02:39;;;;;;;2.60;1.25;;;32.10;37.30;;;;;;6132410;29;20231;-72
2021/05/10 12:05:42;;;;;;;1.38;1.00;;;32.20;37.00;;;;;;6133345;28;20819;-72
2021/05/10 12:08:43;;;;;;;1.70;0.90;;;32.40;36.60;;;;;;6132961;29;20645;-73
2021/05/10 12:11:45;;;;;;;1.48;1.08;;;32.60;35.50;;;;;;6116893;29;20230;-73
2021/05/10 12:14:56;;;;;;;2.05;1.10;;;32.70;36.10;;;;;;6132406;29;20274;-72
2021/05/10 12:18:04;;;;;;;2.60;1.38;;;33.20;36.70;;;;;;6116878;29;20231;-74
2021/05/10 12:21:24;;;;;;;3.05;1.30;;;33.20;36.10;;;;;;6132446;29;20595;-72
2021/05/10 12:24:26;;;;;;;2.38;1.42;;;33.10;36.00;;;;;;6158979;28;20254;-72
2021/05/10 12:27:40;;;;;;;1.85;1.42;;;32.70;36.10;;;;;;6231056;28;20223;-72
2021/05/10 12:30:44;;;;;;;2.95;1.45;;;33.00;36.40;;;;;;6208936;28;20237;-73
2021/05/10 12:33:50;;;;;;;2.40;1.20;;;33.60;37.20;;;;;;6206232;28;20221;-73
2021/05/10 12:36:53;;;;;;;1.90;1.15;;;33.80;35.50;;;;;;6189828;28;20311;-72
2021/05/10 12:40:06;;;;;;;3.20;1.33;;;33.50;35.70;;;;;;6207451;28;20668;-72
2021/05/10 12:43:17;;;;;;;2.67;1.20;;;33.30;36.10;;;;;;6206791;28;20328;-73
2021/05/10 12:46:20;;;;;;;1.77;1.10;;;33.10;36.00;;;;;;6205921;28;20339;-72
2021/05/10 12:49:23;;;;;;;1.67;1.02;;;32.80;35.30;;;;;;6188740;28;20224;-72
2021/05/10 12:52:25;;;;;;;2.55;1.38;;;32.10;36.30;;;;;;6206878;28;20236;-72
2021/05/10 12:55:26;;;;;;;3.47;1.50;;;32.00;36.00;;;;;;6206887;28;20326;-72
2021/05/10 12:58:32;;;;;;;2.22;1.27;;;32.20;36.40;;;;;;6188735;28;20227;-72
2021/05/10 13:01:35;;;;;;;2.13;1.15;;;32.50;36.50;;;;;;6189078;28;20318;-72
2021/05/10 13:04:45;;;;;;;4.53;1.30;;;32.50;35.30;;;;;;6206390;28;20720;-72
2021/05/10 13:07:48;;;;;;;1.60;1.05;;;32.90;36.30;;;;;;6188052;28;20702;-72
2021/05/10 13:10:55;;;;;;;1.88;1.02;;;33.40;36.10;;;;;;6205553;28;20259;-72
2021/05/10 13:14:02;;;;;;;1.88;1.23;;;33.80;35.00;;;;;;6205305;28;20236;-72
2021/05/10 13:21:25;;;;;;;3.38;1.30;;;34.70;34.50;;;;;;6201435;28;20735;-72
2021/05/10 13:34:32;;;;;;;2.75;1.25;;;35.20;32.60;;;;;;6183447;28;20288;-73
2021/05/10 13:37:34;;;;;;;3.08;1.40;;;35.10;32.50;;;;;;6182485;28;20249;-72
2021/05/10 13:40:37;;;;;;;1.63;1.02;;;35.10;33.20;;;;;;6181694;28;20244;-72
2021/05/10 13:46:59;;;;;;;2.13;0.98;;;36.20;33.70;;;;;;6181530;28;20233;-73
2021/05/10 13:50:01;;;;;;;1.10;1.00;;;36.60;31.90;;;;;;6204506;28;20723;-72
2021/05/10 13:53:03;;;;;;;3.72;1.38;;;36.40;32.00;;;;;;6215232;28;20255;-74
2021/05/10 13:56:05;;;;;;;1.73;1.30;;;36.70;32.00;;;;;;6188297;28;20227;-72
2021/05/10 13:59:07;;;;;;;4.53;1.73;;;37.20;31.40;;;;;;6204547;28;20225;-72
2021/05/10 14:02:08;;;;;;;1.50;1.00;;;37.60;30.80;;;;;;6205113;28;20243;-72
2021/05/10 14:05:11;;;;;;;2.53;1.25;;;37.90;31.40;;;;;;6205342;28;20236;-73
2021/05/10 14:08:13;;;;;;;4.15;1.65;;;38.30;30.50;;;;;;6187678;28;20239;-73
2021/05/10 14:11:15;;;;;;;2.28;1.10;;;38.30;30.50;;;;;;6206757;28;20275;-72
2021/05/10 14:14:16;;;;;;;2.15;1.38;;;38.50;30.00;;;;;;6205618;28;20318;-72
2021/05/10 14:17:19;;;;;;;1.63;1.10;;;38.60;30.00;;;;;;6204584;28;20379;-72
2021/05/10 14:20:28;;;;;;;1.23;1.13;;;38.80;30.00;;;;;;6217955;28;20227;-74
2021/05/10 14:23:31;;;;;;;4.60;1.77;;;39.10;29.70;;;;;;6212365;28;20249;-72
2021/05/10 14:26:33;;;;;;;3.83;1.30;;;39.30;29.50;;;;;;6229380;28;20316;-72
2021/05/10 14:29:35;;;;;;;1.60;1.25;;;39.50;29.70;;;;;;6215939;28;20238;-72
2021/05/10 14:32:37;;;;;;;2.20;1.42;;;39.90;29.50;;;;;;6204260;28;20243;-73
2021/05/10 14:35:39;;;;;;;1.55;0.90;;;39.70;29.00;;;;;;6202949;28;20594;-73
2021/05/10 14:38:41;;;;;;;4.45;1.27;;;39.50;29.20;;;;;;6171287;28;20616;-72
2021/05/10 14:41:45;;;;;;;3.42;1.48;;;39.50;29.20;;;;;;6187646;28;20235;-72
2021/05/10 14:44:47;;;;;;;2.75;1.15;;;39.50;29.20;;;;;;6205917;28;20739;-72
2021/05/10 14:47:49;;;;;;;2.67;1.50;;;39.70;28.90;;;;;;6203616;28;20231;-72
2021/05/10 14:50:52;;;;;;;2.47;1.30;;;39.70;29.10;;;;;;6214436;28;20591;-72
2021/05/10 14:54:01;;;;;;;4.07;1.20;;;39.90;28.90;;;;;;6228107;28;20271;-72
2021/05/10 14:57:03;;;;;;;1.40;1.10;;;40.20;29.00;;;;;;6232308;28;20220;-72
2021/05/10 15:00:05;;;;;;;2.22;1.30;;;40.50;28.80;;;;;;6204878;28;20362;-73
2021/05/10 15:03:07;;;;;;;3.25;1.50;;;40.70;28.90;;;;;;6210398;28;20295;-73
2021/05/10 15:06:09;;;;;;;2.85;1.27;;;40.30;28.60;;;;;;6208901;28;20213;-72
2021/05/10 15:09:13;;;;;;;2.80;1.10;;;39.90;29.10;;;;;;6209421;28;20208;-72
2021/05/10 15:12:17;;;;;;;2.10;1.17;;;40.10;29.40;;;;;;6193053;28;20228;-71
2021/05/10 15:15:19;;;;;;;1.70;1.33;;;40.30;29.20;;;;;;6190645;28;20204;-72
2021/05/10 15:18:21;;;;;;;3.65;1.45;;;40.50;29.10;;;;;;6208528;28;20998;-72
2021/05/10 15:21:23;;;;;;;3.03;1.10;;;40.70;29.10;;;;;;6205172;28;20286;-71
2021/05/10 15:24:25;;;;;;;1.20;1.05;;;40.90;29.50;;;;;;6214299;28;20223;-72
2021/05/10 15:27:27;;;;;;;2.25;1.38;;;40.60;28.80;;;;;;6233428;28;20282;-72
2021/05/10 15:30:29;;;;;;;2.67;1.45;;;40.50;29.00;;;;;;6212137;28;20231;-72
2021/05/10 15:33:31;;;;;;;3.10;1.70;;;40.20;29.00;;;;;;6207255;28;20232;-72
2021/05/10 15:36:33;;;;;;;1.52;1.17;;;40.30;29.30;;;;;;6208725;28;20235;-72
2021/05/10 15:39:34;;;;;;;1.60;1.00;;;40.50;29.20;;;;;;6208228;28;20275;-72
2021/05/10 15:42:36;;;;;;;3.10;1.30;;;40.60;29.10;;;;;;6209116;28;20383;-72
2021/05/10 15:45:38;;;;;;;1.58;1.30;;;40.30;28.80;;;;;;6190521;28;20255;-72
2021/05/10 15:48:40;;;;;;;1.67;1.10;;;39.80;29.50;;;;;;6206689;28;20311;-72
2021/05/10 15:51:42;;;;;;;1.58;1.35;;;39.80;29.50;;;;;;6166636;28;20304;-73
2021/05/10 15:54:44;;;;;;;3.97;1.42;;;39.80;29.10;;;;;;6183348;28;20229;-72
2021/05/10 15:57:46;;;;;;;1.58;1.20;;;39.60;29.30;;;;;;6183316;28;20225;-72
2021/05/10 16:00:48;;;;;;;3.35;1.35;;;39.40;29.70;;;;;;6165685;28;20319;-72
2021/05/10 16:03:50;;;;;;;1.42;1.20;;;39.10;29.40;;;;;;6183393;28;20248;-73
2021/05/10 16:06:52;;;;;;;1.80;1.38;;;38.70;29.80;;;;;;6182770;28;20694;-72
2021/05/10 16:09:54;;;;;;;3.58;1.20;;;38.00;30.20;;;;;;6202599;28;20224;-72
2021/05/10 16:12:56;;;;;;;1.67;1.00;;;37.00;31.30;;;;;;6207601;28;20228;-72
2021/05/10 16:15:57;;;;;;;3.10;1.50;;;35.80;32.50;;;;;;6189891;28;20307;-72
2021/05/10 16:19:05;;;;;;;2.65;1.25;;;34.50;33.30;;;;;;6204949;28;20241;-72
2021/05/10 16:22:07;;;;;;;1.73;1.30;;;33.00;34.80;;;;;;6183441;28;20705;-72
2021/05/10 16:25:10;;;;;;;5.07;1.45;;;31.80;36.00;;;;;;6182732;28;20779;-72